Time;durP1;ratioP1;P1;durP2;ratioP2;P2;SDS_P1;SDS_P2;PMS_P1;PMS_P2;Temp;Humidity;BMP_temperature;BMP_pressure;BME280_temperature;BME280_humidity;BME280_pressure;Samples;Min_cycle;Max_cycle;Signal;HPM_P1;HPM_P2
2022/04/23 00:02:11;;;;;;;18.40;14.02;;;;;;;11.13;72.54;100270.38;4998960;28;20030;-72
2022/04/23 00:04:37;;;;;;;16.42;13.95;;;;;;;11.08;72.94;100267.56;5018645;28;20030;-70
2022/04/23 00:07:05;;;;;;;18.77;13.98;;;;;;;11.10;73.05;100265.44;5018618;28;20033;-71
2022/04/23 00:09:30;;;;;;;24.02;14.00;;;;;;;11.07;72.64;100265.94;5018510;28;20026;-73
2022/04/23 00:11:56;;;;;;;17.17;13.75;;;;;;;11.07;73.05;100270.53;5018960;28;20042;-70
2022/04/23 00:14:22;;;;;;;18.17;14.05;;;;;;;11.07;72.88;100268.63;5000988;28;20519;-72
2022/04/23 00:16:50;;;;;;;20.23;14.35;;;;;;;11.03;72.99;100259.34;5018322;28;20029;-71
2022/04/23 00:19:15;;;;;;;17.15;13.93;;;;;;;11.00;73.41;100262.53;5018888;28;20037;-71
2022/04/23 00:21:41;;;;;;;19.15;14.05;;;;;;;11.04;72.99;100266.41;5018283;28;20038;-71
2022/04/23 00:24:06;;;;;;;18.10;14.43;;;;;;;10.94;73.78;100258.09;5018777;28;20058;-72
2022/04/23 00:26:31;;;;;;;20.83;14.07;;;;;;;10.94;73.76;100264.31;5018545;28;20028;-71
2022/04/23 00:28:56;;;;;;;18.33;14.93;;;;;;;10.93;73.61;100265.41;5018208;28;20371;-71
2022/04/23 00:31:22;;;;;;;26.17;14.73;;;;;;;10.93;73.45;100264.56;5018401;28;20041;-72
2022/04/23 00:33:47;;;;;;;17.27;14.80;;;;;;;10.87;74.38;100263.66;5018253;28;20026;-72
2022/04/23 00:36:12;;;;;;;18.23;14.27;;;;;;;10.85;74.25;100264.97;5018633;28;20480;-72
2022/04/23 00:38:40;;;;;;;20.15;14.57;;;;;;;10.84;74.22;100255.19;4997684;28;20093;-70
2022/04/23 00:41:06;;;;;;;18.35;14.73;;;;;;;10.79;73.87;100264.88;5014935;28;20100;-71
2022/04/23 00:43:35;;;;;;;17.52;14.35;;;;;;;10.79;74.44;100270.28;5014947;28;20041;-70
2022/04/23 00:46:02;;;;;;;17.42;14.88;;;;;;;10.75;74.24;100262.84;5015459;28;20038;-71
2022/04/23 00:48:28;;;;;;;19.75;14.73;;;;;;;10.71;75.03;100261.72;5015296;28;20050;-72
2022/04/23 00:50:56;;;;;;;20.23;14.27;;;;;;;10.67;74.45;100264.06;5015044;28;20449;-72
2022/04/23 00:53:22;;;;;;;17.83;14.80;;;;;;;10.69;75.19;100263.81;4997982;28;20041;-70
2022/04/23 00:55:48;;;;;;;18.50;14.48;;;;;;;10.64;75.09;100259.97;5030194;28;20444;-71
2022/04/23 00:58:17;;;;;;;21.23;15.60;;;;;;;10.63;75.21;100254.81;5014955;28;20034;-71
2022/04/23 01:00:43;;;;;;;18.60;14.75;;;;;;;10.63;75.74;100255.63;5012696;28;20650;-71
2022/04/23 01:03:11;;;;;;;19.83;15.52;;;;;;;10.60;75.65;100258.81;5015188;28;20026;-72
2022/04/23 01:05:36;;;;;;;16.13;14.35;;;;;;;10.62;75.43;100263.97;5014867;28;20029;-72
2022/04/23 01:08:04;;;;;;;27.60;15.55;;;;;;;10.59;75.98;100264.44;4997504;28;20466;-72
2022/04/23 01:10:29;;;;;;;19.00;15.30;;;;;;;10.54;76.36;100257.06;5015005;28;20370;-71
2022/04/23 01:12:55;;;;;;;20.55;15.77;;;;;;;10.51;76.27;100251.28;5014512;28;20038;-72
2022/04/23 01:15:21;;;;;;;19.30;15.60;;;;;;;10.49;75.84;100258.81;4997513;28;20410;-71
2022/04/23 01:17:49;;;;;;;18.60;15.43;;;;;;;10.45;76.24;100253.91;5014668;28;20037;-72
2022/04/23 01:20:16;;;;;;;20.13;16.30;;;;;;;10.48;75.95;100255.31;5014731;28;20033;-70
2022/04/23 01:22:44;;;;;;;20.60;15.05;;;;;;;10.48;76.75;100257.19;5014458;28;20041;-70
2022/04/23 01:25:12;;;;;;;19.13;15.85;;;;;;;10.39;76.69;100260.25;5014665;28;20092;-71
2022/04/23 01:27:38;;;;;;;22.27;15.50;;;;;;;10.40;76.88;100261.91;5014132;28;20022;-71
2022/04/23 01:30:06;;;;;;;19.42;15.63;;;;;;;10.43;76.74;100261.44;5014588;28;20454;-71
2022/04/23 01:32:32;;;;;;;21.88;15.70;;;;;;;10.42;76.61;100265.19;5014868;28;20065;-70
2022/04/23 01:34:58;;;;;;;20.67;16.35;;;;;;;10.42;76.98;100270.59;5014574;28;20133;-72
2022/04/23 01:37:23;;;;;;;22.00;16.58;;;;;;;10.42;77.36;100267.91;4996846;28;20077;-71
2022/04/23 01:39:48;;;;;;;22.20;16.65;;;;;;;10.43;77.46;100260.59;5013906;28;20363;-69
2022/04/23 01:42:17;;;;;;;21.38;16.95;;;;;;;10.37;77.38;100264.25;5013666;28;20060;-72
2022/04/23 01:44:44;;;;;;;19.42;16.30;;;;;;;10.35;77.17;100264.50;4994502;28;20038;-71
2022/04/23 01:47:10;;;;;;;20.33;16.38;;;;;;;10.30;77.90;100264.38;4994750;28;20026;-71
2022/04/23 01:49:35;;;;;;;22.25;17.27;;;;;;;10.29;77.96;100266.22;4994351;28;20481;-70
2022/04/23 01:52:00;;;;;;;21.05;17.08;;;;;;;10.27;77.92;100270.25;4976924;28;20462;-72
2022/04/23 01:54:25;;;;;;;20.20;17.13;;;;;;;10.18;78.38;100260.84;4994803;28;20026;-70
2022/04/23 01:56:51;;;;;;;25.17;16.98;;;;;;;10.20;78.62;100269.53;4994016;28;20068;-71
2022/04/23 01:59:16;;;;;;;21.35;16.83;;;;;;;10.18;77.76;100266.28;5012051;28;20034;-71
2022/04/23 02:01:41;;;;;;;20.17;17.95;;;;;;;10.16;78.88;100269.22;5011555;28;20029;-70
2022/04/23 02:04:08;;;;;;;21.92;18.30;;;;;;;10.17;78.87;100267.31;5013638;28;20037;-72
2022/04/23 02:06:34;;;;;;;19.67;17.33;;;;;;;10.17;78.96;100278.13;5014049;28;20036;-71
2022/04/23 02:09:03;;;;;;;19.98;17.88;;;;;;;10.12;78.80;100276.13;5013629;28;20034;-70
2022/04/23 02:11:28;;;;;;;24.35;18.73;;;;;;;10.13;78.86;100266.13;5013437;28;20054;-72
2022/04/23 02:13:54;;;;;;;23.92;18.60;;;;;;;10.14;79.01;100275.91;4995629;28;20492;-71
2022/04/23 02:16:19;;;;;;;24.50;18.75;;;;;;;10.08;78.89;100265.00;5013482;28;20022;-69
2022/04/23 02:18:45;;;;;;;22.63;18.63;;;;;;;10.15;78.90;100264.03;4995861;28;20165;-72
2022/04/23 02:21:10;;;;;;;23.65;19.63;;;;;;;10.16;79.63;100269.22;5013676;28;20461;-69
2022/04/23 02:23:36;;;;;;;23.23;19.67;;;;;;;10.14;78.83;100262.38;4995801;28;20037;-72
2022/04/23 02:26:01;;;;;;;24.70;20.20;;;;;;;10.14;79.45;100262.38;5013360;28;20355;-70
2022/04/23 02:28:26;;;;;;;22.65;19.45;;;;;;;10.16;78.61;100265.66;5013317;28;20029;-70
2022/04/23 02:30:51;;;;;;;25.40;20.02;;;;;;;10.11;80.01;100269.91;5013055;28;20440;-71
2022/04/23 02:33:35;;;;;;;24.48;19.40;;;;;;;10.14;78.99;100263.19;5013495;28;20032;-71
2022/04/23 02:36:00;;;;;;;24.98;21.17;;;;;;;10.11;79.49;100264.50;4995384;28;20540;-71
2022/04/23 02:38:25;;;;;;;26.15;21.15;;;;;;;10.07;79.08;100260.63;5013654;28;20034;-69
2022/04/23 02:40:51;;;;;;;23.40;20.52;;;;;;;10.08;79.41;100261.44;5012953;28;20034;-70
2022/04/23 02:43:16;;;;;;;26.63;21.27;;;;;;;10.08;79.79;100256.88;5013303;28;20076;-70
2022/04/23 02:45:42;;;;;;;24.77;20.58;;;;;;;10.05;80.02;100257.31;4995408;28;20026;-71
2022/04/23 02:48:09;;;;;;;30.08;22.08;;;;;;;9.99;79.73;100255.56;5013277;28;20101;-71
2022/04/23 02:50:37;;;;;;;25.88;21.70;;;;;;;10.03;80.16;100259.44;5013195;28;20033;-71
2022/04/23 02:53:03;;;;;;;27.08;22.63;;;;;;;9.98;80.13;100259.34;5012868;28;20083;-71
2022/04/23 02:55:32;;;;;;;28.17;22.27;;;;;;;10.00;80.53;100253.69;5013213;28;20037;-72
2022/04/23 02:58:09;;;;;;;25.55;22.17;;;;;;;9.95;80.80;100257.13;5012447;28;20115;-72
2022/04/23 03:00:35;;;;;;;28.05;22.33;;;;;;;9.90;80.93;100256.97;5010303;28;20091;-70
2022/04/23 03:03:01;;;;;;;25.40;21.85;;;;;;;9.97;80.77;100256.88;4994699;28;20050;-71
2022/04/23 03:05:26;;;;;;;27.33;22.92;;;;;;;9.96;80.94;100247.13;4995329;28;20389;-70
2022/04/23 03:07:53;;;;;;;29.27;23.55;;;;;;;9.97;79.99;100249.59;5012630;28;20030;-71
2022/04/23 03:10:19;;;;;;;26.10;22.08;;;;;;;9.94;81.29;100248.16;5012819;28;20137;-71
2022/04/23 03:12:45;;;;;;;27.80;22.05;;;;;;;9.95;80.68;100249.00;5012413;28;20045;-71
2022/04/23 03:15:13;;;;;;;25.83;22.40;;;;;;;9.91;81.31;100245.13;5012931;28;20022;-71
2022/04/23 03:17:39;;;;;;;29.88;23.00;;;;;;;9.93;81.32;100245.69;4995191;28;20114;-71
2022/04/23 03:20:07;;;;;;;26.15;22.90;;;;;;;9.96;81.39;100244.41;5012596;28;20038;-71
2022/04/23 03:22:33;;;;;;;26.42;23.40;;;;;;;9.93;80.60;100251.09;5012621;28;20037;-71
2022/04/23 03:24:58;;;;;;;28.35;23.67;;;;;;;9.88;81.32;100243.69;5012250;28;20433;-71
2022/04/23 03:27:23;;;;;;;28.85;23.58;;;;;;;9.89;81.10;100249.94;5012511;28;20120;-70
2022/04/23 03:29:49;;;;;;;27.35;23.33;;;;;;;9.84;81.27;100239.00;5012187;28;20425;-69
2022/04/23 03:32:14;;;;;;;29.80;24.83;;;;;;;9.82;81.54;100247.34;5012389;28;20026;-70
2022/04/23 03:34:39;;;;;;;28.50;24.30;;;;;;;9.80;81.76;100245.94;5012264;28;20029;-71
2022/04/23 03:37:05;;;;;;;30.45;24.50;;;;;;;9.80;81.97;100245.94;5012405;28;20466;-73
2022/04/23 03:39:34;;;;;;;29.77;24.75;;;;;;;9.82;81.31;100241.94;5012609;28;20456;-69
2022/04/23 03:42:01;;;;;;;29.08;24.27;;;;;;;9.78;81.61;100240.75;5012334;28;20026;-70
2022/04/23 03:44:27;;;;;;;29.27;24.15;;;;;;;9.77;81.55;100239.13;4994989;28;20026;-71
2022/04/23 03:46:54;;;;;;;30.17;24.70;;;;;;;9.78;81.83;100237.25;5012438;28;20109;-71
2022/04/23 03:49:22;;;;;;;30.67;24.55;;;;;;;9.75;82.08;100242.06;5012427;28;20057;-71
2022/04/23 03:51:47;;;;;;;28.80;24.98;;;;;;;9.74;82.05;100237.72;5012204;28;20065;-72
2022/04/23 03:54:12;;;;;;;28.67;24.17;;;;;;;9.78;81.41;100239.94;5012545;28;20057;-71
2022/04/23 03:56:38;;;;;;;31.63;26.00;;;;;;;9.72;82.19;100230.88;4994909;28;20037;-70
2022/04/23 03:59:03;;;;;;;29.88;25.95;;;;;;;9.69;82.12;100239.47;4994626;28;20476;-70
2022/04/23 04:01:28;;;;;;;31.10;25.75;;;;;;;9.68;82.13;100235.13;5009904;28;20030;-71
2022/04/23 04:03:53;;;;;;;27.77;24.80;;;;;;;9.69;82.64;100232.19;5011947;28;20033;-72
2022/04/23 04:06:19;;;;;;;29.98;25.95;;;;;;;9.63;82.52;100233.16;5012082;28;20022;-70
2022/04/23 04:08:50;;;;;;;30.52;25.80;;;;;;;9.62;82.67;100228.78;5012394;28;20347;-71
2022/04/23 04:11:15;;;;;;;30.03;25.80;;;;;;;9.60;83.00;100233.56;5028389;28;20501;-71
2022/04/23 04:13:40;;;;;;;29.70;24.63;;;;;;;9.62;82.69;100226.09;5034614;28;20033;-69
2022/04/23 04:16:06;;;;;;;33.00;26.40;;;;;;;9.60;82.39;100222.78;5035586;28;20026;-70
2022/04/23 04:18:32;;;;;;;29.55;25.13;;;;;;;9.61;82.86;100224.44;5029261;28;20080;-71
2022/04/23 04:20:58;;;;;;;31.92;25.52;;;;;;;9.56;83.10;100219.72;5015234;28;20034;-70
2022/04/23 04:23:26;;;;;;;29.88;25.45;;;;;;;9.57;83.01;100225.94;5015886;28;20030;-71
2022/04/23 04:25:52;;;;;;;33.28;25.98;;;;;;;9.54;83.13;100215.59;5015576;28;20033;-71
2022/04/23 04:28:17;;;;;;;30.40;26.83;;;;;;;9.58;83.13;100222.19;5015780;28;20033;-71
2022/04/23 04:33:26;;;;;;;34.10;26.88;;;;;;;9.56;83.97;100222.44;5015495;28;20104;-71
2022/04/23 04:35:52;;;;;;;30.30;26.30;;;;;;;9.52;83.92;100223.13;5026475;28;20034;-71
2022/04/23 04:38:17;;;;;;;31.33;26.65;;;;;;;9.51;83.91;100218.78;5035238;28;20026;-69
2022/04/23 04:40:42;;;;;;;30.95;26.08;;;;;;;9.52;83.97;100223.94;5034953;28;20052;-69
2022/04/23 04:43:08;;;;;;;30.90;26.17;;;;;;;9.49;84.29;100221.72;5017486;28;20371;-70
2022/04/23 04:45:33;;;;;;;33.60;26.73;;;;;;;9.43;83.95;100213.72;5034945;28;20037;-72
2022/04/23 04:47:58;;;;;;;32.78;27.10;;;;;;;9.47;84.64;100225.72;5034701;28;20030;-68
2022/04/23 04:50:24;;;;;;;32.10;26.98;;;;;;;9.44;84.29;100226.19;5025319;28;20033;-71
2022/04/23 04:52:49;;;;;;;32.67;26.60;;;;;;;9.49;84.32;100224.41;5015036;28;20030;-69
2022/04/23 04:55:14;;;;;;;31.10;26.92;;;;;;;9.51;84.22;100229.59;5015231;28;20040;-71
2022/04/23 04:57:40;;;;;;;31.30;25.80;;;;;;;9.53;84.29;100235.59;5015282;28;20068;-68
2022/04/23 05:00:06;;;;;;;30.38;26.10;;;;;;;9.53;84.42;100235.59;4997265;28;20385;-69
2022/04/23 05:02:31;;;;;;;31.73;26.00;;;;;;;9.52;84.58;100236.63;4979083;28;20026;-72
2022/04/23 05:04:57;;;;;;;30.77;26.63;;;;;;;9.53;84.36;100241.81;5014468;28;20417;-70
2022/04/23 05:07:22;;;;;;;30.85;26.05;;;;;;;9.56;84.60;100240.53;5022839;28;20025;-71
2022/04/23 05:09:47;;;;;;;32.33;26.95;;;;;;;9.57;84.36;100240.28;5044226;28;20095;-71
2022/04/23 05:12:12;;;;;;;31.23;26.67;;;;;;;9.58;84.94;100238.41;5016869;28;20041;-71
2022/04/23 05:14:38;;;;;;;32.20;26.58;;;;;;;9.54;85.22;100232.66;5034748;28;20469;-71
2022/04/23 05:17:03;;;;;;;29.17;25.88;;;;;;;9.60;85.02;100247.09;5034677;28;20461;-70
2022/04/23 05:19:29;;;;;;;29.70;25.98;;;;;;;9.63;84.59;100235.84;5034792;28;20108;-75
2022/04/23 05:21:54;;;;;;;32.22;26.55;;;;;;;9.66;84.18;100239.94;5051926;28;20041;-70
2022/04/23 05:24:19;;;;;;;30.15;26.55;;;;;;;9.69;84.62;100240.31;5047687;28;20022;-71
2022/04/23 05:26:44;;;;;;;29.15;26.00;;;;;;;9.67;84.42;100234.28;5036647;28;20453;-71
2022/04/23 05:29:10;;;;;;;29.80;26.50;;;;;;;9.66;84.91;100235.38;5053129;28;20048;-71
2022/04/23 05:31:38;;;;;;;29.80;26.45;;;;;;;9.67;84.90;100242.41;5054047;28;20036;-71
2022/04/23 05:34:04;;;;;;;30.05;26.25;;;;;;;9.67;84.36;100237.00;5054021;28;20119;-72
2022/04/23 05:36:29;;;;;;;29.77;26.45;;;;;;;9.75;84.15;100233.97;5054451;28;20115;-72
2022/04/23 05:38:55;;;;;;;31.05;26.00;;;;;;;9.81;84.14;100228.66;5031462;28;20034;-71
2022/04/23 05:41:20;;;;;;;34.33;25.95;;;;;;;9.78;84.51;100231.84;5034166;28;20031;-72
2022/04/23 05:43:45;;;;;;;31.13;25.88;;;;;;;9.79;84.61;100228.09;5034180;28;20057;-72
2022/04/23 05:46:11;;;;;;;29.38;26.00;;;;;;;9.84;84.33;100236.31;5033953;28;20029;-71
2022/04/23 05:48:37;;;;;;;28.98;25.55;;;;;;;9.83;84.68;100240.06;5033847;28;20033;-72
2022/04/23 05:51:02;;;;;;;35.97;26.83;;;;;;;9.86;84.93;100231.50;5033728;28;20120;-72
2022/04/23 05:53:27;;;;;;;32.92;26.58;;;;;;;9.87;84.17;100230.44;5033269;28;20112;-72
2022/04/23 05:55:56;;;;;;;29.45;26.08;;;;;;;9.91;84.58;100237.81;5033758;28;20112;-72
2022/04/23 05:58:22;;;;;;;28.50;25.50;;;;;;;9.93;84.17;100234.88;5033980;28;20069;-71
2022/04/23 06:00:47;;;;;;;35.45;25.25;;;;;;;9.98;84.62;100235.03;5031252;28;20021;-71
2022/04/23 06:03:12;;;;;;;32.38;25.25;;;;;;;9.99;84.65;100233.94;5033560;28;20067;-71
2022/04/23 06:05:39;;;;;;;28.35;25.30;;;;;;;10.07;84.19;100230.06;5033728;28;20021;-72
2022/04/23 06:08:04;;;;;;;31.58;26.02;;;;;;;10.09;83.63;100227.94;5032335;28;20026;-72
2022/04/23 06:10:30;;;;;;;29.05;25.95;;;;;;;10.13;83.66;100231.00;5013524;28;20116;-72
2022/04/23 06:12:55;;;;;;;27.63;24.63;;;;;;;10.11;83.70;100226.66;5013739;28;20042;-71
2022/04/23 06:15:20;;;;;;;30.38;26.00;;;;;;;10.14;83.70;100236.16;5013563;28;20441;-71
2022/04/23 06:17:46;;;;;;;28.60;25.60;;;;;;;10.18;83.65;100231.13;5013617;28;20026;-73
2022/04/23 06:20:12;;;;;;;29.08;25.90;;;;;;;10.23;83.16;100234.72;5013443;28;20030;-71
2022/04/23 06:22:37;;;;;;;30.25;25.10;;;;;;;10.27;83.73;100230.50;5013345;28;20033;-71
2022/04/23 06:25:03;;;;;;;29.30;25.73;;;;;;;10.36;83.41;100228.28;5014132;28;20029;-72
2022/04/23 06:27:30;;;;;;;29.15;26.02;;;;;;;10.37;82.87;100220.97;5015566;28;20038;-71
2022/04/23 06:29:55;;;;;;;28.20;25.17;;;;;;;10.46;82.97;100228.50;5032735;28;20457;-71
2022/04/23 06:32:21;;;;;;;28.13;25.23;;;;;;;10.51;82.56;100225.06;5033330;28;20040;-71
2022/04/23 06:34:46;;;;;;;27.42;24.42;;;;;;;10.60;82.09;100230.94;5033193;28;20029;-71
2022/04/23 06:37:11;;;;;;;27.17;24.27;;;;;;;10.64;82.53;100241.03;5031933;28;20358;-71
2022/04/23 06:39:37;;;;;;;28.35;25.23;;;;;;;10.73;82.06;100235.22;5015594;28;20097;-72
2022/04/23 06:42:02;;;;;;;29.95;24.55;;;;;;;10.75;81.87;100231.22;4995462;28;20112;-72
2022/04/23 06:44:28;;;;;;;27.60;24.63;;;;;;;10.77;81.78;100231.78;5013261;28;20072;-71
2022/04/23 06:46:53;;;;;;;27.20;24.38;;;;;;;10.85;81.67;100221.66;5013584;28;20040;-71
2022/04/23 06:49:18;;;;;;;30.08;25.77;;;;;;;10.92;81.48;100236.69;5012835;28;20030;-70
2022/04/23 06:51:43;;;;;;;29.80;25.27;;;;;;;10.96;80.92;100226.19;5012951;28;20032;-72
2022/04/23 06:54:09;;;;;;;28.65;25.55;;;;;;;11.04;80.40;100233.13;5028181;28;20029;-71
2022/04/23 06:56:34;;;;;;;29.08;24.92;;;;;;;11.12;80.22;100230.81;5032866;28;20037;-70
2022/04/23 06:58:59;;;;;;;30.20;23.98;;;;;;;11.20;80.45;100220.66;5032295;28;20033;-71
2022/04/23 07:01:25;;;;;;;27.38;24.33;;;;;;;11.28;79.84;100218.38;5030384;28;20061;-73
2022/04/23 07:03:50;;;;;;;27.92;24.95;;;;;;;11.32;79.45;100215.97;5032677;28;20036;-70
2022/04/23 07:06:16;;;;;;;27.67;23.83;;;;;;;11.38;79.55;100212.28;5032558;28;20057;-72
2022/04/23 07:08:44;;;;;;;26.60;23.73;;;;;;;11.44;79.26;100211.28;5018724;28;20037;-71
2022/04/23 07:11:09;;;;;;;28.90;23.63;;;;;;;11.51;78.72;100220.09;5012759;28;20046;-71
2022/04/23 07:13:35;;;;;;;26.55;23.75;;;;;;;11.58;78.70;100222.66;5012865;28;20033;-71
2022/04/23 07:16:03;;;;;;;28.13;23.42;;;;;;;11.60;77.51;100214.25;5012676;28;20064;-71
2022/04/23 07:18:29;;;;;;;26.83;23.95;;;;;;;11.65;77.69;100217.03;5012780;28;20466;-71
2022/04/23 07:20:55;;;;;;;27.08;23.17;;;;;;;11.66;77.94;100199.72;5012612;28;20033;-71
2022/04/23 07:26:06;;;;;;;29.92;23.42;;;;;;;11.83;77.31;100207.81;5020306;28;20450;-71
2022/04/23 07:28:31;;;;;;;26.52;23.75;;;;;;;11.86;76.92;100207.31;5025224;28;20111;-71
2022/04/23 07:30:57;;;;;;;25.92;23.13;;;;;;;11.92;76.60;100200.09;5031968;28;20033;-71
2022/04/23 07:38:51;;;;;;;29.77;23.30;;;;;;;12.11;76.06;100198.75;5012743;28;20552;-71
2022/04/23 07:41:18;;;;;;;26.35;22.45;;;;;;;12.18;74.65;100199.41;5012607;28;20120;-71
2022/04/23 07:43:43;;;;;;;28.88;22.92;;;;;;;12.23;75.38;100196.75;4994934;28;20117;-71
2022/04/23 07:46:09;;;;;;;25.77;22.60;;;;;;;12.29;74.87;100192.22;5012954;28;20057;-72
2022/04/23 07:48:34;;;;;;;25.13;22.45;;;;;;;12.42;75.57;100188.28;4997316;28;20120;-71
2022/04/23 07:50:59;;;;;;;25.30;22.15;;;;;;;12.48;74.35;100197.31;5023060;28;20518;-72
2022/04/23 07:53:24;;;;;;;25.75;22.48;;;;;;;12.53;73.63;100200.06;5035969;28;20044;-71
2022/04/23 07:55:50;;;;;;;25.02;22.38;;;;;;;12.58;73.60;100190.09;5036000;28;20025;-72
2022/04/23 07:58:15;;;;;;;24.92;20.33;;;;;;;12.64;72.31;100180.13;5036003;28;20029;-71
2022/04/23 08:00:42;;;;;;;23.38;20.90;;;;;;;12.73;72.27;100191.34;5033847;28;20349;-72
2022/04/23 08:03:08;;;;;;;25.27;21.00;;;;;;;12.79;71.57;100193.03;5035719;28;20025;-71
2022/04/23 08:05:34;;;;;;;23.48;21.02;;;;;;;12.88;71.32;100185.25;5030161;28;20117;-71
2022/04/23 08:07:59;;;;;;;24.88;20.80;;;;;;;12.92;70.89;100192.63;5015923;28;20117;-72
2022/04/23 08:10:25;;;;;;;21.95;19.65;;;;;;;13.00;70.04;100187.78;5015922;28;20089;-71
2022/04/23 08:12:51;;;;;;;22.33;19.92;;;;;;;13.02;69.57;100182.94;5016118;28;20026;-71
2022/04/23 08:15:16;;;;;;;25.13;20.70;;;;;;;13.05;69.23;100175.06;5015808;28;20575;-71
2022/04/23 08:17:41;;;;;;;24.02;19.95;;;;;;;13.07;68.88;100169.38;5015681;28;20034;-70
2022/04/23 08:20:08;;;;;;;22.02;19.65;;;;;;;13.11;68.49;100174.03;4998447;28;20040;-74
2022/04/23 08:22:33;;;;;;;22.33;19.33;;;;;;;13.16;68.73;100161.59;4998273;28;20069;-73
2022/04/23 08:24:59;;;;;;;22.30;19.75;;;;;;;13.14;68.47;100163.75;5015944;28;20058;-73
2022/04/23 08:27:24;;;;;;;24.05;19.90;;;;;;;13.23;67.67;100175.78;5015540;28;20041;-73
2022/04/23 08:32:33;;;;;;;22.02;19.73;;;;;;;13.38;68.63;100166.97;5015813;28;20134;-70
2022/04/23 08:34:59;;;;;;;22.77;20.35;;;;;;;13.37;67.40;100171.56;5020056;28;20053;-73
2022/04/23 08:37:24;;;;;;;25.13;20.15;;;;;;;13.40;66.98;100171.03;5035180;28;20484;-71
2022/04/23 08:39:50;;;;;;;34.17;19.70;;;;;;;13.50;66.80;100167.59;5035465;28;20036;-73
2022/04/23 08:42:17;;;;;;;25.60;19.67;;;;;;;13.56;67.14;100166.53;5035050;28;20032;-74
2022/04/23 08:44:45;;;;;;;22.60;19.55;;;;;;;13.64;66.61;100159.78;5035245;28;20029;-71
2022/04/23 08:47:11;;;;;;;24.40;20.60;;;;;;;13.74;67.58;100162.59;5035065;28;20172;-72
2022/04/23 08:49:40;;;;;;;24.58;20.35;;;;;;;13.88;66.33;100175.72;5034533;28;20454;-73
2022/04/23 08:52:21;;;;;;;25.48;20.90;;;;;;;13.99;65.71;100167.34;5034976;28;20040;-78
2022/04/23 08:54:47;;;;;;;23.27;20.83;;;;;;;14.04;65.48;100168.44;5025950;28;20607;-71
2022/04/23 08:57:12;;;;;;;22.33;19.92;;;;;;;14.12;65.66;100160.59;5052081;28;20056;-71
2022/04/23 08:59:38;;;;;;;25.75;20.92;;;;;;;14.21;64.66;100179.16;5024419;28;20083;-73
2022/04/23 09:02:13;;;;;;;23.15;20.75;;;;;;;14.26;64.63;100169.06;5040088;28;20025;-74
2022/04/23 09:04:42;;;;;;;27.90;21.48;;;;;;;14.36;64.20;100180.00;5034368;28;20034;-70
2022/04/23 09:07:17;;;;;;;24.85;21.65;;;;;;;14.39;64.52;100172.38;5034228;28;20048;-72
2022/04/23 09:09:49;;;;;;;23.63;21.13;;;;;;;14.43;64.10;100174.34;5033536;28;20477;-74
2022/04/23 09:12:17;;;;;;;23.90;21.38;;;;;;;14.51;64.16;100184.69;5034397;28;20048;-72
2022/04/23 09:14:44;;;;;;;25.15;20.10;;;;;;;14.62;64.03;100184.75;5033307;28;20476;-73
2022/04/23 09:25:36;;;;;;;30.73;25.08;;;;;;;14.73;62.47;100185.59;5048042;28;20072;-71
2022/04/23 09:28:29;;;;;;;27.35;24.00;;;;;;;14.76;62.96;100185.88;5031418;28;20041;-71
2022/04/23 09:30:56;;;;;;;27.02;24.23;;;;;;;14.77;62.47;100187.50;5032186;28;20045;-75
2022/04/23 09:33:29;;;;;;;30.38;24.20;;;;;;;14.80;61.62;100186.16;5034184;28;20033;-70
2022/04/23 09:35:59;;;;;;;28.15;25.35;;;;;;;14.83;61.67;100188.34;5002204;28;20087;-73
2022/04/23 09:38:25;;;;;;;29.30;26.30;;;;;;;14.87;61.48;100182.09;5033929;28;20083;-72
2022/04/23 09:40:59;;;;;;;27.15;24.35;;;;;;;14.98;62.45;100177.47;5034112;28;20040;-72
2022/04/23 09:43:32;;;;;;;27.70;24.67;;;;;;;15.13;61.21;100184.03;5034038;28;20029;-73
2022/04/23 09:46:03;;;;;;;28.60;25.63;;;;;;;15.14;61.57;100180.19;5034147;28;20025;-75
2022/04/23 09:48:29;;;;;;;30.42;26.65;;;;;;;15.16;61.02;100175.31;5033560;28;20113;-73
2022/04/23 09:50:55;;;;;;;27.55;24.77;;;;;;;15.12;61.08;100171.47;5016106;28;20040;-73
2022/04/23 09:53:21;;;;;;;26.83;24.02;;;;;;;15.13;61.26;100179.38;5015472;28;20387;-74
2022/04/23 09:55:47;;;;;;;31.92;24.92;;;;;;;15.14;60.75;100175.59;5033985;28;20066;-73
2022/04/23 09:58:13;;;;;;;27.77;24.92;;;;;;;15.16;60.46;100178.03;5033813;28;20101;-72
2022/04/23 10:00:41;;;;;;;28.50;25.45;;;;;;;15.14;60.20;100172.84;5014154;28;20033;-73
2022/04/23 10:03:08;;;;;;;29.10;26.02;;;;;;;15.16;60.41;100162.50;5033989;28;20025;-73
2022/04/23 10:05:49;;;;;;;29.60;26.52;;;;;;;15.19;60.63;100170.13;5033871;28;20029;-73
2022/04/23 10:08:22;;;;;;;28.52;25.58;;;;;;;15.15;60.55;100165.50;5015562;28;20033;-72
2022/04/23 10:10:53;;;;;;;28.58;25.67;;;;;;;15.12;60.45;100168.75;5027149;28;20076;-72
2022/04/23 10:13:20;;;;;;;28.17;25.33;;;;;;;15.19;60.38;100167.41;5033482;28;20441;-73
2022/04/23 10:15:47;;;;;;;29.90;24.52;;;;;;;15.27;60.25;100163.31;5033128;28;20056;-72
2022/04/23 10:18:13;;;;;;;28.02;25.00;;;;;;;15.35;59.83;100154.59;5033317;28;20034;-72
2022/04/23 10:20:52;;;;;;;27.95;23.50;;;;;;;15.38;60.22;100159.50;5033410;28;20033;-72
2022/04/23 10:23:58;;;;;;;26.98;24.15;;;;;;;15.49;59.92;100159.47;5033276;28;20109;-72
2022/04/23 10:26:35;;;;;;;28.80;25.42;;;;;;;15.52;59.79;100148.84;5013392;28;20068;-73
2022/04/23 10:29:06;;;;;;;28.08;25.17;;;;;;;15.63;59.16;100143.38;5013848;28;20113;-72
2022/04/23 10:31:31;;;;;;;27.05;23.92;;;;;;;15.71;58.66;100146.31;5013002;28;20107;-73
2022/04/23 10:33:56;;;;;;;26.73;23.92;;;;;;;15.77;58.20;100137.06;5013790;28;20057;-72
2022/04/23 10:36:22;;;;;;;26.45;23.52;;;;;;;15.83;58.13;100150.72;5013002;28;20037;-70
2022/04/23 10:38:52;;;;;;;26.40;23.70;;;;;;;15.96;57.76;100158.31;5014330;28;20374;-72
2022/04/23 10:41:24;;;;;;;26.77;24.00;;;;;;;15.99;57.70;100157.75;5032807;28;20022;-71
2022/04/23 10:43:52;;;;;;;27.15;24.33;;;;;;;16.00;57.20;100153.91;5033315;28;20083;-72
2022/04/23 10:46:36;;;;;;;29.23;25.42;;;;;;;16.07;58.31;100150.91;5032775;28;20025;-71
2022/04/23 10:49:18;;;;;;;29.13;24.00;;;;;;;16.13;57.46;100157.97;5033001;28;20025;-73
2022/04/23 10:51:47;;;;;;;;;;;;;;;16.21;58.44;100160.09;5033121;28;20384;-73
2022/04/23 10:54:15;;;;;;;27.50;23.98;;;;;;;16.28;57.11;100141.50;5014611;28;19928;-73
2022/04/23 10:56:41;;;;;;;25.88;23.13;;;;;;;16.32;57.09;100149.97;5046755;28;20469;-73
2022/04/23 10:59:33;;;;;;;27.63;23.65;;;;;;;16.45;57.50;100140.34;5041438;28;20040;-74
2022/04/23 11:02:05;;;;;;;28.13;25.13;;;;;;;16.51;56.83;100158.31;5030190;28;20108;-74
2022/04/23 11:04:31;;;;;;;26.88;23.90;;;;;;;16.54;55.51;100137.84;5032430;28;20469;-73
2022/04/23 11:12:30;;;;;;;25.83;23.15;;;;;;;16.88;55.28;100139.81;5052010;28;20408;-71
2022/04/23 11:14:56;;;;;;;26.08;22.30;;;;;;;17.02;55.71;100135.34;5052521;28;20032;-72
2022/04/23 11:17:30;;;;;;;23.02;20.65;;;;;;;17.20;54.82;100130.28;5052233;28;20419;-71
2022/04/23 11:19:56;;;;;;;24.40;21.90;;;;;;;17.42;54.73;100143.47;5052441;28;20029;-74
2022/04/23 11:22:22;;;;;;;26.35;22.27;;;;;;;17.50;54.01;100134.66;5044184;28;20076;-71
2022/04/23 11:24:48;;;;;;;24.50;21.30;;;;;;;17.54;53.37;100125.59;5014515;28;20544;-72
2022/04/23 11:27:29;;;;;;;25.20;21.83;;;;;;;17.64;53.51;100134.78;5014636;28;20053;-72
2022/04/23 11:29:55;;;;;;;24.38;21.67;;;;;;;17.75;52.29;100135.47;5052438;28;20108;-74
2022/04/23 11:32:29;;;;;;;24.23;21.73;;;;;;;17.86;53.00;100131.50;5034331;28;20532;-70
2022/04/23 11:34:56;;;;;;;24.95;22.02;;;;;;;17.82;53.06;100122.28;5046523;28;20033;-72
2022/04/23 11:37:28;;;;;;;24.17;21.58;;;;;;;17.79;52.97;100137.34;5046509;28;20519;-72
2022/04/23 11:40:03;;;;;;;22.85;20.33;;;;;;;17.75;52.64;100124.53;5052358;28;20037;-72